Royal Oaks, California
Current Conditions -  °F | °C
As of 3:53 PM on Friday 21 Nov 2014 (Local Time) from KWVI Reporting Station
Overcast Overcast  
Wind Chill: 61°   Ceiling: 7500
Heat Index: 61°   Visibility: 10mi
Dew Point: 51°   Wind: 3mph
Humidity: 70%   Direction: 250°WSW
Pressure: 30.1"   Gusts: NA
Location:  36.9274°N, 121.747°W
Report Text: KWVI 212353Z AUTO 25003KT 10SM BKN075 OVC095 16/11 A3010 RMK AO2 SLP193 T01610106 10189 20128 53006
Loading
Personal Weather Stations






























Interactive Weather Map New forecast layout! Learn more

10-Day Weather Forecast

Advertisements
Track Severe Weather on mobile